createdAt,value
2017-07-19T00:00:20.770Z,9.63
2017-07-19T00:01:20.768Z,9.63
2017-07-19T00:02:20.736Z,9.62
2017-07-19T00:03:20.740Z,9.62
2017-07-19T00:04:20.436Z,9.56
2017-07-19T00:05:20.418Z,9.5
2017-07-19T00:06:20.403Z,9.34
2017-07-19T00:07:20.394Z,9.37
2017-07-19T00:08:20.689Z,9.48
2017-07-19T00:09:20.689Z,9.32
2017-07-19T00:10:20.369Z,9.48
2017-07-19T00:11:20.356Z,9.38
2017-07-19T00:12:20.647Z,9.45
2017-07-19T00:13:20.342Z,9.4
2017-07-19T00:14:20.633Z,9.38
2017-07-19T00:15:20.634Z,9.49
2017-07-19T00:16:20.612Z,9.48
2017-07-19T00:17:20.607Z,9.44
2017-07-19T00:18:20.592Z,9.49
2017-07-19T00:19:20.279Z,9.55
2017-07-19T00:20:20.276Z,9.55
2017-07-19T00:21:20.577Z,9.58
2017-07-19T00:22:20.252Z,9.48
2017-07-19T00:23:20.545Z,9.48
2017-07-19T00:24:20.538Z,9.48
2017-07-19T00:25:20.540Z,9.6
2017-07-19T00:26:20.207Z,9.59
2017-07-19T00:27:20.499Z,9.62
2017-07-19T00:28:20.501Z,9.6
2017-07-19T00:29:20.487Z,9.77
2017-07-19T00:30:20.163Z,9.8
2017-07-19T00:31:20.470Z,9.74
2017-07-19T00:32:20.452Z,9.6
2017-07-19T00:33:20.451Z,9.62
2017-07-19T00:34:20.431Z,9.65
2017-07-19T00:35:20.444Z,9.65
2017-07-19T00:36:20.419Z,9.65
2017-07-19T00:37:20.100Z,9.63
2017-07-19T00:38:20.084Z,9.6
2017-07-19T00:39:20.390Z,9.65
2017-07-19T00:40:20.385Z,9.62
2017-07-19T00:41:20.360Z,9.77
2017-07-19T00:42:20.354Z,9.93
2017-07-19T00:43:20.345Z,9.83
2017-07-19T00:44:20.332Z,9.86
2017-07-19T00:45:20.020Z,9.89
2017-07-19T00:46:20.310Z,9.85
2017-07-19T00:47:20.328Z,9.85
2017-07-19T00:48:20.299Z,9.92
2017-07-19T00:49:20.291Z,9.89
2017-07-19T00:50:20.279Z,9.95
2017-07-19T00:51:20.278Z,9.96
2017-07-19T00:52:20.261Z,10.07
2017-07-19T00:53:19.956Z,10.04
2017-07-19T00:54:20.247Z,10.13
2017-07-19T00:55:20.228Z,9.99
2017-07-19T00:56:20.214Z,10.04
2017-07-19T00:57:20.236Z,10.02
2017-07-19T00:58:34.085Z,10.01
2017-07-19T00:59:20.199Z,10.02
2017-07-19T01:00:20.180Z,10.09
2017-07-19T01:01:20.176Z,10.07
2017-07-19T01:02:20.165Z,10.04
2017-07-19T01:03:20.368Z,9.86
2017-07-19T01:04:20.039Z,9.86
2017-07-19T01:05:20.135Z,9.85
2017-07-19T01:06:19.841Z,9.78
2017-07-19T01:07:20.320Z,9.8
2017-07-19T01:08:19.813Z,9.86
2017-07-19T01:09:20.301Z,9.85
2017-07-19T01:10:20.103Z,9.99
2017-07-19T01:11:20.081Z,9.99
2017-07-19T01:12:20.069Z,9.88
2017-07-19T01:13:20.065Z,9.86
2017-07-19T01:14:20.046Z,9.92
2017-07-19T01:15:20.048Z,9.92
2017-07-19T01:16:20.032Z,9.89
2017-07-19T01:17:20.018Z,9.93
2017-07-19T01:18:20.016Z,9.92
2017-07-19T01:19:20.020Z,9.92
2017-07-19T01:20:19.998Z,9.88
2017-07-19T01:21:19.981Z,9.83
2017-07-19T01:22:19.976Z,9.74
2017-07-19T01:23:19.990Z,9.6
2017-07-19T01:24:19.964Z,9.73
2017-07-19T01:25:19.958Z,9.67
2017-07-19T01:26:19.945Z,9.75
2017-07-19T01:27:19.947Z,9.81
2017-07-19T01:28:19.629Z,9.75
2017-07-19T01:29:19.923Z,9.67
2017-07-19T01:30:19.920Z,9.65
2017-07-19T01:31:19.901Z,9.53
2017-07-19T01:32:19.894Z,9.45
2017-07-19T01:33:19.886Z,9.48
2017-07-19T01:34:19.875Z,9.49
2017-07-19T01:35:20.066Z,9.45
2017-07-19T01:36:19.849Z,9.48
2017-07-19T01:37:19.846Z,9.6
2017-07-19T01:38:19.835Z,9.6
2017-07-19T01:39:19.839Z,9.65
2017-07-19T01:40:20.020Z,9.68
2017-07-19T01:41:20.006Z,9.73
2017-07-19T01:42:19.803Z,9.73
2017-07-19T01:43:19.796Z,9.7
2017-07-19T01:44:19.779Z,9.65
2017-07-19T01:45:19.770Z,9.63
2017-07-19T01:46:19.974Z,9.77
2017-07-19T01:47:19.741Z,9.74
2017-07-19T01:48:19.740Z,9.91
2017-07-19T01:49:19.723Z,9.83
2017-07-19T01:50:19.737Z,9.74
2017-07-19T01:51:19.718Z,9.8
2017-07-19T01:52:19.724Z,9.73
2017-07-19T01:53:19.695Z,9.67
2017-07-19T01:54:19.703Z,9.67
2017-07-19T01:55:19.676Z,9.65
2017-07-19T01:56:19.668Z,9.63
2017-07-19T01:57:19.670Z,9.6
2017-07-19T01:58:19.642Z,9.67
2017-07-19T01:59:19.634Z,9.63
2017-07-19T02:00:19.629Z,9.67
2017-07-19T02:01:19.610Z,9.63
2017-07-19T02:02:25.205Z,9.63
2017-07-19T02:03:19.614Z,9.62
2017-07-19T02:04:19.583Z,9.63
2017-07-19T02:05:19.581Z,9.6
2017-07-19T02:06:19.580Z,9.62
2017-07-19T02:07:22.020Z,9.73
2017-07-19T02:08:19.551Z,9.62
2017-07-19T02:09:19.541Z,9.67
2017-07-19T02:10:19.532Z,9.71
2017-07-19T02:11:19.216Z,9.67
2017-07-19T02:12:22.066Z,9.65
2017-07-19T02:13:19.211Z,9.63
2017-07-19T02:14:19.520Z,9.68
2017-07-19T02:15:19.180Z,9.63
2017-07-19T02:16:19.483Z,9.68
2017-07-19T02:17:21.772Z,9.65
2017-07-19T02:18:19.688Z,9.63
2017-07-19T02:19:33.087Z,9.63
2017-07-19T02:20:19.439Z,9.56
2017-07-19T02:21:19.427Z,9.53
2017-07-19T02:22:23.074Z,9.52
2017-07-19T02:23:19.615Z,9.56
2017-07-19T02:24:19.404Z,9.5
2017-07-19T02:25:19.398Z,9.48
2017-07-19T02:26:23.035Z,9.53
2017-07-19T02:27:19.377Z,9.6
2017-07-19T02:28:19.384Z,9.63
2017-07-19T02:29:19.366Z,9.65
2017-07-19T02:30:19.353Z,9.63
2017-07-19T02:31:19.341Z,9.71
2017-07-19T02:32:19.338Z,9.71
2017-07-19T02:33:19.326Z,9.75
2017-07-19T02:34:19.316Z,9.63
2017-07-19T02:35:19.306Z,9.62
2017-07-19T02:36:19.300Z,9.71
2017-07-19T02:37:19.285Z,9.67
2017-07-19T02:38:19.270Z,9.7
2017-07-19T02:39:19.270Z,9.71
2017-07-19T02:40:19.264Z,9.63
2017-07-19T02:41:19.247Z,9.7
2017-07-19T02:42:19.233Z,9.73
2017-07-19T02:43:19.220Z,9.65
2017-07-19T02:44:19.210Z,9.73
2017-07-19T02:45:19.220Z,9.75
2017-07-19T02:46:19.209Z,9.78
2017-07-19T02:47:19.183Z,9.74
2017-07-19T02:48:19.184Z,9.71
2017-07-19T02:49:19.174Z,9.73
2017-07-19T02:50:19.164Z,9.74
2017-07-19T02:51:19.071Z,9.74
2017-07-19T02:52:19.067Z,9.75
2017-07-19T02:53:19.134Z,9.71
2017-07-19T02:54:18.820Z,9.74
2017-07-19T02:55:19.118Z,9.67
2017-07-19T02:56:19.019Z,9.65
2017-07-19T02:57:32.736Z,9.65
2017-07-19T02:58:18.779Z,9.62
2017-07-19T02:59:19.083Z,9.65
2017-07-19T03:00:18.471Z,9.67
2017-07-19T03:01:18.758Z,9.5
2017-07-19T03:02:18.747Z,9.52
2017-07-19T03:03:18.742Z,9.52
2017-07-19T03:04:18.422Z,9.53
2017-07-19T03:05:18.730Z,9.5
2017-07-19T03:06:19.010Z,9.49
2017-07-19T03:07:19.006Z,9.52
2017-07-19T03:08:19.002Z,9.55
2017-07-19T03:09:18.990Z,9.49
2017-07-19T03:10:18.975Z,9.49
2017-07-19T03:11:18.995Z,9.45
2017-07-19T03:12:18.947Z,9.55
2017-07-19T03:13:18.964Z,9.63
2017-07-19T03:14:18.629Z,9.65
2017-07-19T03:15:18.633Z,9.62
2017-07-19T03:16:18.923Z,9.58
2017-07-19T03:17:18.910Z,9.5
2017-07-19T03:18:18.892Z,9.62
2017-07-19T03:19:18.889Z,9.65
2017-07-19T03:20:18.886Z,9.67
2017-07-19T03:21:18.894Z,9.74
2017-07-19T03:22:18.554Z,9.68
2017-07-19T03:23:18.852Z,9.56
2017-07-19T03:24:18.837Z,9.63
2017-07-19T03:25:18.528Z,9.58
2017-07-19T03:26:18.523Z,9.56
2017-07-19T03:27:18.514Z,9.63
2017-07-19T03:28:18.514Z,9.63
2017-07-19T03:29:18.487Z,9.7
2017-07-19T03:30:18.732Z,9.65
2017-07-19T03:31:18.776Z,9.65
2017-07-19T03:32:18.774Z,9.55
2017-07-19T03:33:18.754Z,9.63
2017-07-19T03:34:18.946Z,9.52
2017-07-19T03:35:18.739Z,9.62
2017-07-19T03:36:18.730Z,9.53
2017-07-19T03:37:18.739Z,9.42
2017-07-19T03:38:18.713Z,9.45
2017-07-19T03:39:18.700Z,9.48
2017-07-19T03:40:18.690Z,9.56
2017-07-19T03:41:18.692Z,9.59
2017-07-19T03:42:18.676Z,9.49
2017-07-19T03:43:18.360Z,9.32
2017-07-19T03:44:18.659Z,9.24
2017-07-19T03:45:18.652Z,9.23
2017-07-19T03:46:18.334Z,9.22
2017-07-19T03:47:18.327Z,9.2
2017-07-19T03:48:18.319Z,9.31
2017-07-19T03:49:17.994Z,9.35
2017-07-19T03:50:18.599Z,9.31
2017-07-19T03:51:18.586Z,9.38
2017-07-19T03:52:18.577Z,9.37
2017-07-19T03:53:18.573Z,9.32
2017-07-19T03:54:18.555Z,9.26
2017-07-19T03:55:18.537Z,9.23
2017-07-19T03:56:18.540Z,9.24
2017-07-19T03:57:18.533Z,9.3
2017-07-19T03:58:18.510Z,9.31
2017-07-19T03:59:18.514Z,9.32
2017-07-19T04:00:18.497Z,9.48
2017-07-19T04:01:18.501Z,9.53
2017-07-19T04:02:18.486Z,9.5
2017-07-19T04:03:18.466Z,9.62
2017-07-19T04:04:18.475Z,9.6
2017-07-19T04:05:18.457Z,9.63
2017-07-19T04:06:18.439Z,9.56
2017-07-19T04:07:18.443Z,9.59
2017-07-19T04:08:18.426Z,9.58
2017-07-19T04:09:18.421Z,9.52
2017-07-19T04:10:18.407Z,9.5
2017-07-19T04:11:18.391Z,9.58
2017-07-19T04:12:18.376Z,9.65
2017-07-19T04:13:18.380Z,9.55
2017-07-19T04:14:18.386Z,9.58
2017-07-19T04:15:18.357Z,9.6
2017-07-19T04:16:18.335Z,9.65
2017-07-19T04:17:18.334Z,9.65
2017-07-19T04:18:18.326Z,9.62
2017-07-19T04:19:18.318Z,9.58
2017-07-19T04:20:18.299Z,9.58
2017-07-19T04:21:18.301Z,9.62
2017-07-19T04:22:18.289Z,9.65
2017-07-19T04:23:18.287Z,9.56
2017-07-19T04:24:17.956Z,9.63
2017-07-19T04:25:18.254Z,9.63
2017-07-19T04:26:18.257Z,9.63
2017-07-19T04:27:18.240Z,9.62
2017-07-19T04:28:18.218Z,9.65
2017-07-19T04:29:18.220Z,9.63
2017-07-19T04:30:17.908Z,9.63
2017-07-19T04:31:18.186Z,9.58
2017-07-19T04:32:18.190Z,9.65
2017-07-19T04:33:18.170Z,9.65
2017-07-19T04:34:18.167Z,9.63
2017-07-19T04:35:18.163Z,9.74
2017-07-19T04:36:18.143Z,9.65
2017-07-19T04:37:18.142Z,9.58
2017-07-19T04:38:17.824Z,9.45
2017-07-19T04:39:17.825Z,9.48
2017-07-19T04:40:18.106Z,9.52
2017-07-19T04:41:18.106Z,9.45
2017-07-19T04:42:18.099Z,9.6
2017-07-19T04:43:18.082Z,9.71
2017-07-19T04:44:18.078Z,9.75
2017-07-19T04:45:18.070Z,9.86
2017-07-19T04:46:18.051Z,10.11
2017-07-19T04:47:18.053Z,10.32
2017-07-19T04:48:18.026Z,10.28
2017-07-19T04:49:18.021Z,10.29
2017-07-19T04:50:17.707Z,10.29
2017-07-19T04:51:18.013Z,10.42
2017-07-19T04:52:17.984Z,10.66
2017-07-19T04:53:17.984Z,10.55
2017-07-19T04:54:17.965Z,10.62
2017-07-19T04:55:17.955Z,10.68
2017-07-19T04:56:17.945Z,10.66
2017-07-19T04:57:17.941Z,10.68
2017-07-19T04:58:17.929Z,10.78
2017-07-19T04:59:17.919Z,10.63
2017-07-19T05:00:17.910Z,10.49
2017-07-19T05:01:17.894Z,10.73
2017-07-19T05:02:17.887Z,10.63
2017-07-19T05:03:17.893Z,10.57
2017-07-19T05:04:17.890Z,10.76
2017-07-19T05:05:17.868Z,10.8
2017-07-19T05:06:17.881Z,11.11
2017-07-19T05:07:17.845Z,11.01
2017-07-19T05:08:17.841Z,11.11
2017-07-19T05:09:17.830Z,10.99
2017-07-19T05:10:17.814Z,10.95
2017-07-19T05:11:17.806Z,10.93
2017-07-19T05:12:17.803Z,11.03
2017-07-19T05:13:17.792Z,11.01
2017-07-19T05:14:17.795Z,11.08
2017-07-19T05:15:17.761Z,10.91
2017-07-19T05:16:17.768Z,10.93
2017-07-19T05:17:17.771Z,11.38
2017-07-19T05:18:17.742Z,11.56
2017-07-19T05:19:17.727Z,11.7
2017-07-19T05:20:17.432Z,11.9
2017-07-19T05:21:17.713Z,12.13
2017-07-19T05:22:17.707Z,12.52
2017-07-19T05:23:17.700Z,12.59
2017-07-19T05:24:17.713Z,12.61
2017-07-19T05:25:17.679Z,12.55
2017-07-19T05:26:17.375Z,12.85
2017-07-19T05:27:17.664Z,12.81
2017-07-19T05:28:17.350Z,13.01
2017-07-19T05:29:17.373Z,13.07
2017-07-19T05:30:17.642Z,13.38
2017-07-19T05:31:17.339Z,13.69
2017-07-19T05:32:17.635Z,13.87
2017-07-19T05:33:17.609Z,13.81
2017-07-19T05:34:17.608Z,13.79
2017-07-19T05:35:17.616Z,13.63
2017-07-19T05:36:17.292Z,13.06
2017-07-19T05:37:17.593Z,12.87
2017-07-19T05:38:17.593Z,12.31
2017-07-19T05:39:17.579Z,12.01
2017-07-19T05:40:17.579Z,11.94
2017-07-19T05:41:17.263Z,12.01
2017-07-19T05:42:17.258Z,12.03
2017-07-19T05:43:17.251Z,12.18
2017-07-19T05:44:17.535Z,11.79
2017-07-19T05:45:17.538Z,11.9
2017-07-19T05:46:17.223Z,12.36
2017-07-19T05:47:17.518Z,12.59
2017-07-19T05:48:17.513Z,12.54
2017-07-19T05:49:17.514Z,12.44
2017-07-19T05:50:17.526Z,12.62
2017-07-19T05:51:17.493Z,12.61
2017-07-19T05:52:17.478Z,12.26
2017-07-19T05:53:17.476Z,12.03
2017-07-19T05:54:17.477Z,11.42
2017-07-19T05:55:17.158Z,11.35
2017-07-19T05:56:17.456Z,11.16
2017-07-19T05:57:17.441Z,10.99
2017-07-19T05:58:17.440Z,10.87
2017-07-19T05:59:17.443Z,10.78
2017-07-19T06:00:16.820Z,10.8
2017-07-19T06:01:17.413Z,10.68
2017-07-19T06:02:17.113Z,10.57
2017-07-19T06:03:17.103Z,10.49
2017-07-19T06:04:16.791Z,10.24
2017-07-19T06:05:16.782Z,10.28
2017-07-19T06:06:17.384Z,10.25
2017-07-19T06:07:16.758Z,10.18
2017-07-19T06:08:16.758Z,10.11
2017-07-19T06:09:17.361Z,10.14
2017-07-19T06:10:17.356Z,10.1
2017-07-19T06:11:17.334Z,10.36
2017-07-19T06:12:17.326Z,10.32
2017-07-19T06:13:17.326Z,10.36
2017-07-19T06:14:17.301Z,10.29
2017-07-19T06:15:17.313Z,10.2
2017-07-19T06:16:17.284Z,10.25
2017-07-19T06:17:17.277Z,10.14
2017-07-19T06:18:17.271Z,10.2
2017-07-19T06:19:16.954Z,10.24
2017-07-19T06:20:17.259Z,10.09
2017-07-19T06:21:17.249Z,10.22
2017-07-19T06:22:17.243Z,10.24
2017-07-19T06:23:17.236Z,10.26
2017-07-19T06:24:20.236Z,10.14
2017-07-19T06:25:16.904Z,10.28
2017-07-19T06:26:17.204Z,10.38
2017-07-19T06:27:16.881Z,10.35
2017-07-19T06:28:16.884Z,10.32
2017-07-19T06:29:22.935Z,10.26
2017-07-19T06:30:20.168Z,10.38
2017-07-19T06:31:16.848Z,10.47
2017-07-19T06:32:16.850Z,10.63
2017-07-19T06:33:16.853Z,10.6
2017-07-19T06:34:16.529Z,10.52
2017-07-19T06:35:22.530Z,10.47
2017-07-19T06:36:17.132Z,10.44
2017-07-19T06:37:16.821Z,10.58
2017-07-19T06:38:16.811Z,10.47
2017-07-19T06:39:17.091Z,10.62
2017-07-19T06:40:16.777Z,10.78
2017-07-19T06:41:16.763Z,10.78
2017-07-19T06:42:16.759Z,10.84
2017-07-19T06:43:16.746Z,10.99
2017-07-19T06:44:17.056Z,11.08
2017-07-19T06:45:16.742Z,10.95
2017-07-19T06:46:17.033Z,10.95
2017-07-19T06:47:17.022Z,10.98
2017-07-19T06:48:17.006Z,11.09
2017-07-19T06:49:17.014Z,11.36
2017-07-19T06:50:16.992Z,11.12
2017-07-19T06:51:16.981Z,11.12
2017-07-19T06:52:16.985Z,11.09
2017-07-19T06:53:16.975Z,11.28
2017-07-19T06:54:16.961Z,11.21
2017-07-19T06:55:16.968Z,11.23
2017-07-19T06:56:16.977Z,11.02
2017-07-19T06:57:16.636Z,10.72
2017-07-19T06:58:16.937Z,10.66
2017-07-19T06:59:16.614Z,10.46
2017-07-19T07:00:16.919Z,10.49
2017-07-19T07:01:16.609Z,10.26
2017-07-19T07:02:16.905Z,10.32
2017-07-19T07:03:16.900Z,10.43
2017-07-19T07:04:16.578Z,10.31
2017-07-19T07:05:16.874Z,10.35
2017-07-19T07:06:16.868Z,10.29
2017-07-19T07:07:16.863Z,10.39
2017-07-19T07:08:16.858Z,10.46
2017-07-19T07:09:16.838Z,10.47
2017-07-19T07:10:16.234Z,10.36
2017-07-19T07:11:16.531Z,10.38
2017-07-19T07:12:16.820Z,10.47
2017-07-19T07:13:16.814Z,10.55
2017-07-19T07:14:16.797Z,10.47
2017-07-19T07:15:16.800Z,10.57
2017-07-19T07:16:16.787Z,10.55
2017-07-19T07:17:16.783Z,10.68
2017-07-19T07:18:16.769Z,10.86
2017-07-19T07:19:16.456Z,10.98
2017-07-19T07:20:16.753Z,11.09
2017-07-19T07:21:16.461Z,11.17
2017-07-19T07:22:16.754Z,11.08
2017-07-19T07:23:16.733Z,11.12
2017-07-19T07:24:16.733Z,10.93
2017-07-19T07:25:16.416Z,11.01
2017-07-19T07:26:16.738Z,11.3
2017-07-19T07:27:16.405Z,11.59
2017-07-19T07:28:16.707Z,11.78
2017-07-19T07:29:16.686Z,11.98
2017-07-19T07:30:16.684Z,11.96
2017-07-19T07:31:16.366Z,12.05
2017-07-19T07:32:16.668Z,12.19
2017-07-19T07:33:16.666Z,12.23
2017-07-19T07:34:16.649Z,12.4
2017-07-19T07:35:16.646Z,12.19
2017-07-19T07:36:16.655Z,12.18
2017-07-19T07:37:16.632Z,12.16
2017-07-19T07:38:16.020Z,12.4
2017-07-19T07:39:16.307Z,11.94
2017-07-19T07:40:16.611Z,11.94
2017-07-19T07:41:16.003Z,11.82
2017-07-19T07:42:16.598Z,11.94
2017-07-19T07:43:16.585Z,12.21
2017-07-19T07:44:16.572Z,12.19
2017-07-19T07:45:16.270Z,12.12
2017-07-19T07:46:16.569Z,12.18
2017-07-19T07:47:16.564Z,12.12
2017-07-19T07:48:16.568Z,11.9
2017-07-19T07:49:16.551Z,11.56
2017-07-19T07:50:16.544Z,11.6
2017-07-19T07:51:16.520Z,11.51
2017-07-19T07:52:16.520Z,11.42
2017-07-19T07:53:16.521Z,11.67
2017-07-19T07:54:16.511Z,11.75
2017-07-19T07:55:16.504Z,11.75
2017-07-19T07:56:16.186Z,11.78
2017-07-19T07:57:16.495Z,11.48
2017-07-19T07:58:16.481Z,11.3
2017-07-19T07:59:16.473Z,11.09
2017-07-19T08:00:16.167Z,11.01
2017-07-19T08:01:16.446Z,11.23
2017-07-19T08:02:16.456Z,11.01
2017-07-19T08:03:16.440Z,11.82
2017-07-19T08:04:16.436Z,12.23
2017-07-19T08:05:16.130Z,12.41
2017-07-19T08:06:16.418Z,12.4
2017-07-19T08:07:16.409Z,12.16
2017-07-19T08:08:16.390Z,12.05
2017-07-19T08:09:16.391Z,11.87
2017-07-19T08:10:16.383Z,11.88
2017-07-19T08:11:16.380Z,11.56
2017-07-19T08:12:16.069Z,11.41
2017-07-19T08:13:16.358Z,11.27
2017-07-19T08:14:16.058Z,11.23
2017-07-19T08:15:16.338Z,11.38
2017-07-19T08:16:16.341Z,11.51
2017-07-19T08:17:16.322Z,11.48
2017-07-19T08:18:16.328Z,11.7
2017-07-19T08:19:16.301Z,11.77
2017-07-19T08:20:16.309Z,11.87
2017-07-19T08:21:16.295Z,12.7
2017-07-19T08:22:16.288Z,13.09
2017-07-19T08:23:16.275Z,13.43
2017-07-19T08:24:15.981Z,13.68
2017-07-19T08:25:16.268Z,13.91
2017-07-19T08:26:16.281Z,14.01
2017-07-19T08:27:16.257Z,13.71
2017-07-19T08:28:16.236Z,13.73
2017-07-19T08:29:15.927Z,13.8
2017-07-19T08:30:15.921Z,13.8
2017-07-19T08:31:16.209Z,13.91
2017-07-19T08:32:16.216Z,13.55
2017-07-19T08:33:16.205Z,13.66
2017-07-19T08:34:16.211Z,13.54
2017-07-19T08:35:16.189Z,13.12
2017-07-19T08:36:16.174Z,13.38
2017-07-19T08:37:16.180Z,14.01
2017-07-19T08:38:16.174Z,13.69
2017-07-19T08:39:16.157Z,13.43
2017-07-19T08:40:16.154Z,12.81
2017-07-19T08:41:15.850Z,13.43
2017-07-19T08:42:16.135Z,13.59
2017-07-19T08:43:16.140Z,13.71
2017-07-19T08:44:16.123Z,13.54
2017-07-19T08:45:16.129Z,13.72
2017-07-19T08:46:15.809Z,13.72
2017-07-19T08:47:16.104Z,13.87
2017-07-19T08:48:15.793Z,13.51
2017-07-19T08:49:16.095Z,13.91
2017-07-19T08:50:15.780Z,14.86
2017-07-19T08:51:16.085Z,14.66
2017-07-19T08:52:16.073Z,14.45
2017-07-19T08:53:16.074Z,13.91
2017-07-19T08:54:16.089Z,13.55
2017-07-19T08:55:16.053Z,13.66
2017-07-19T08:56:16.047Z,13.51
2017-07-19T08:57:16.038Z,13.44
2017-07-19T08:58:15.727Z,12.99
2017-07-19T08:59:16.027Z,12.7
2017-07-19T09:00:16.018Z,12.54
2017-07-19T09:01:16.006Z,12.15
2017-07-19T09:02:16.017Z,12.12
2017-07-19T09:03:15.994Z,12.11
2017-07-19T09:04:16.000Z,12.18
2017-07-19T09:05:15.980Z,12.07
2017-07-19T09:06:15.980Z,12.03
2017-07-19T09:07:16.030Z,12
2017-07-19T09:08:15.962Z,11.96
2017-07-19T09:09:16.001Z,11.78
2017-07-19T09:10:15.949Z,11.57
2017-07-19T09:11:15.950Z,11.53
2017-07-19T09:12:15.631Z,11.31
2017-07-19T09:13:15.923Z,11.27
2017-07-19T09:14:15.919Z,11.31
2017-07-19T09:15:15.909Z,11.27
2017-07-19T09:16:15.905Z,11.94
2017-07-19T09:17:15.908Z,12.87
2017-07-19T09:18:15.898Z,13.75
2017-07-19T09:19:15.889Z,13.61
2017-07-19T09:20:15.866Z,13.53
2017-07-19T09:21:15.860Z,13.35
2017-07-19T09:22:15.557Z,13.31
2017-07-19T09:23:15.851Z,13.54
2017-07-19T09:24:15.841Z,14.12
2017-07-19T09:25:15.847Z,13.93
2017-07-19T09:26:15.839Z,14.23
2017-07-19T09:27:15.819Z,14.67
2017-07-19T09:28:15.822Z,15.66
2017-07-19T09:29:15.820Z,15.98
2017-07-19T09:30:15.804Z,15.96
2017-07-19T09:31:15.809Z,16.4
2017-07-19T09:32:15.795Z,15.91
2017-07-19T09:33:15.782Z,14.94
2017-07-19T09:34:15.479Z,13.71
2017-07-19T09:35:15.785Z,13.09
2017-07-19T09:36:15.777Z,13.1
2017-07-19T09:37:15.750Z,13.32
2017-07-19T09:38:15.754Z,13.46
2017-07-19T09:39:15.746Z,12.94
2017-07-19T09:40:15.732Z,12.69
2017-07-19T09:41:15.742Z,12.62
2017-07-19T09:42:15.733Z,12.61
2017-07-19T09:43:15.721Z,12.96
2017-07-19T09:44:15.737Z,13.94
2017-07-19T09:45:15.722Z,14.61
2017-07-19T09:46:15.397Z,15.51
2017-07-19T09:47:15.391Z,16.65
2017-07-19T09:48:15.694Z,15.76
2017-07-19T09:49:15.679Z,14.44
2017-07-19T09:50:15.682Z,13.65
2017-07-19T09:51:15.665Z,12.66
2017-07-19T09:52:15.361Z,12.05
2017-07-19T09:53:15.660Z,11.57
2017-07-19T09:54:15.648Z,11.3
2017-07-19T09:55:15.660Z,11.13
2017-07-19T09:56:15.647Z,10.94
2017-07-19T09:57:15.331Z,10.83
2017-07-19T09:58:15.633Z,10.83
2017-07-19T09:59:15.617Z,10.55
2017-07-19T10:00:15.608Z,10.38
2017-07-19T10:01:15.289Z,10.31
2017-07-19T10:02:15.585Z,10.18
2017-07-19T10:03:15.587Z,10.02
2017-07-19T10:04:15.567Z,10.01
2017-07-19T10:05:15.570Z,9.95
2017-07-19T10:06:15.549Z,9.88
2017-07-19T10:07:15.552Z,9.96
2017-07-19T10:08:15.539Z,10.11
2017-07-19T10:09:15.540Z,10.32
2017-07-19T10:10:15.521Z,10.51
2017-07-19T10:11:15.513Z,10.78
2017-07-19T10:12:15.502Z,11.62
2017-07-19T10:13:15.498Z,12.19
2017-07-19T10:14:15.501Z,12.73
2017-07-19T10:15:15.479Z,12.73
2017-07-19T10:16:15.470Z,12.73
2017-07-19T10:17:15.485Z,13.04
2017-07-19T10:18:15.463Z,12.85
2017-07-19T10:19:15.470Z,13.8
2017-07-19T10:20:15.458Z,13.73
2017-07-19T10:21:15.439Z,13.75
2017-07-19T10:22:15.445Z,14.01
2017-07-19T10:23:15.445Z,14.44
2017-07-19T10:24:15.420Z,14.75
2017-07-19T10:25:15.412Z,14.59
2017-07-19T10:26:15.398Z,14.79
2017-07-19T10:27:15.403Z,14.95
2017-07-19T10:28:15.391Z,14.64
2017-07-19T10:29:15.389Z,15.25
2017-07-19T10:30:15.373Z,15.76
2017-07-19T10:31:15.383Z,15.52
2017-07-19T10:32:15.360Z,15.23
2017-07-19T10:33:15.363Z,15.11
2017-07-19T10:34:15.355Z,14.83
2017-07-19T10:35:15.353Z,14.04
2017-07-19T10:36:15.343Z,14.41
2017-07-19T10:37:15.336Z,15
2017-07-19T10:38:15.322Z,14.91
2017-07-19T10:39:15.320Z,14.52
2017-07-19T10:40:15.322Z,14.71
2017-07-19T10:41:15.317Z,15.07
2017-07-19T10:42:15.321Z,14.86
2017-07-19T10:43:15.291Z,14.13
2017-07-19T10:44:15.298Z,13.83
2017-07-19T10:45:15.285Z,13.66
2017-07-19T10:46:15.289Z,13.68
2017-07-19T10:47:15.271Z,13.9
2017-07-19T10:48:15.264Z,14.36
2017-07-19T10:49:15.264Z,14.49
2017-07-19T10:50:15.261Z,15.23
2017-07-19T10:51:15.247Z,16.17
2017-07-19T10:52:15.256Z,16.84
2017-07-19T10:53:15.237Z,17.32
2017-07-19T10:54:14.937Z,17.42
2017-07-19T10:55:14.934Z,17.65
2017-07-19T10:56:15.234Z,17.8
2017-07-19T10:57:15.223Z,18.1
2017-07-19T10:58:14.917Z,17.71
2017-07-19T10:59:15.212Z,17.06
2017-07-19T11:00:15.207Z,16.96
2017-07-19T11:01:15.197Z,17.02
2017-07-19T11:02:15.198Z,16.55
2017-07-19T11:03:15.205Z,16.5
2017-07-19T11:04:14.886Z,16.9
2017-07-19T11:05:15.200Z,17.63
2017-07-19T11:06:15.180Z,17.77
2017-07-19T11:07:15.172Z,18.07
2017-07-19T11:08:15.207Z,17.35
2017-07-19T11:09:15.156Z,17
2017-07-19T11:10:15.165Z,17.36
2017-07-19T11:11:15.151Z,17.6
2017-07-19T11:12:15.163Z,18.01
2017-07-19T11:13:15.146Z,18.42
2017-07-19T11:14:15.141Z,18.78
2017-07-19T11:15:15.136Z,18.62
2017-07-19T11:16:15.131Z,18.19
2017-07-19T11:17:15.129Z,17.79
2017-07-19T11:18:14.826Z,17.38
2017-07-19T11:19:15.136Z,16.22
2017-07-19T11:20:15.126Z,15.74
2017-07-19T11:21:15.118Z,15.96
2017-07-19T11:22:15.109Z,15.12
2017-07-19T11:23:15.102Z,15.4
2017-07-19T11:24:15.096Z,15.56
2017-07-19T11:25:14.804Z,15.77
2017-07-19T11:26:15.104Z,15.68
2017-07-19T11:27:14.798Z,15.41
2017-07-19T11:28:15.081Z,16.03
2017-07-19T11:29:15.087Z,16.13
2017-07-19T11:30:14.784Z,16.73
2017-07-19T11:31:15.118Z,16.98
2017-07-19T11:32:14.463Z,16.95
2017-07-19T11:33:14.768Z,17.18
2017-07-19T11:34:14.756Z,17.21
2017-07-19T11:35:14.751Z,17.06
2017-07-19T11:36:14.753Z,16.54
2017-07-19T11:37:15.061Z,16.69
2017-07-19T11:38:15.051Z,16.65
2017-07-19T11:39:15.056Z,16.14
2017-07-19T11:40:15.037Z,16.11
2017-07-19T11:41:15.023Z,16.6
2017-07-19T11:42:15.027Z,16.14
2017-07-19T11:43:15.020Z,16.17
2017-07-19T11:44:15.019Z,16.77
2017-07-19T11:45:15.020Z,16.36
2017-07-19T11:46:15.016Z,16.5
2017-07-19T11:47:15.003Z,16.47
2017-07-19T11:48:15.006Z,16.63
2017-07-19T11:49:14.984Z,17.36
2017-07-19T11:50:14.997Z,17.45
2017-07-19T11:51:14.995Z,18.16
2017-07-19T11:52:14.981Z,18.82
2017-07-19T11:53:14.984Z,19.16
2017-07-19T11:54:14.978Z,19.35
2017-07-19T11:55:14.979Z,19.67
2017-07-19T11:56:14.964Z,19.53
2017-07-19T11:57:14.963Z,19.32
2017-07-19T11:58:14.968Z,19.12
2017-07-19T11:59:14.945Z,19.09
2017-07-19T12:00:14.960Z,19.06
2017-07-19T12:01:14.950Z,18.86
2017-07-19T12:02:14.950Z,19.05
2017-07-19T12:03:14.948Z,19.16
2017-07-19T12:04:14.938Z,18.36
2017-07-19T12:05:14.944Z,18.02
2017-07-19T12:06:14.941Z,18.09
2017-07-19T12:07:14.946Z,18.39
2017-07-19T12:08:14.325Z,17.91
2017-07-19T12:09:14.935Z,17.89
2017-07-19T12:10:14.626Z,18.13
2017-07-19T12:11:14.919Z,18.51
2017-07-19T12:12:14.933Z,18.69
2017-07-19T12:13:14.921Z,19.16
2017-07-19T12:14:14.902Z,19.07
2017-07-19T12:15:14.906Z,19.06
2017-07-19T12:16:14.593Z,19.49
2017-07-19T12:17:14.903Z,19.06
2017-07-19T12:18:14.598Z,18.76
2017-07-19T12:19:14.893Z,18.02
2017-07-19T12:20:14.885Z,18.19
2017-07-19T12:21:14.587Z,17.3
2017-07-19T12:22:14.888Z,17.03
2017-07-19T12:23:14.891Z,17.14
2017-07-19T12:24:14.271Z,17.28
2017-07-19T12:25:14.883Z,17.47
2017-07-19T12:26:14.878Z,17.81
2017-07-19T12:27:14.568Z,18.23
2017-07-19T12:28:14.563Z,17.57
2017-07-19T12:29:14.869Z,17.54
2017-07-19T12:30:14.853Z,17.65
2017-07-19T12:31:14.861Z,17.65
2017-07-19T12:32:14.557Z,17.58
2017-07-19T12:33:14.549Z,18.13
2017-07-19T12:34:14.854Z,17.95
2017-07-19T12:35:14.843Z,18.05
2017-07-19T12:36:14.533Z,18.21
2017-07-19T12:37:14.835Z,18.65
2017-07-19T12:38:14.536Z,19.45
2017-07-19T12:39:14.534Z,20.01
2017-07-19T12:40:14.523Z,19.55
2017-07-19T12:41:14.520Z,19.35
2017-07-19T12:42:14.816Z,19.1
2017-07-19T12:43:14.816Z,18.78
2017-07-19T12:44:14.818Z,18.6
2017-07-19T12:45:14.818Z,19.1
2017-07-19T12:46:14.817Z,19.27
2017-07-19T12:47:14.813Z,19.17
2017-07-19T12:48:14.812Z,19.12
2017-07-19T12:49:14.502Z,19.35
2017-07-19T12:50:14.813Z,19.67
2017-07-19T12:51:14.486Z,19.6
2017-07-19T12:52:14.793Z,19.38
2017-07-19T12:53:14.787Z,19.25
2017-07-19T12:54:14.775Z,19.16
2017-07-19T12:55:14.486Z,18.56
2017-07-19T12:56:14.473Z,18.41
2017-07-19T12:57:14.782Z,18.39
2017-07-19T12:58:14.471Z,18.66
2017-07-19T12:59:14.767Z,19.13
2017-07-19T13:00:14.460Z,19.52
2017-07-19T13:01:14.455Z,19.85
2017-07-19T13:02:14.456Z,20.05
2017-07-19T13:03:14.459Z,20.12
2017-07-19T13:04:14.452Z,19.94